Latest Weather Observations for Ocean Reef

IDW60801

Issued at 3:35 am WST Monday 22 September 2014 (issued every 30 minutes, with the page automatically refreshed every 10 minutes)

About weather observations | Map of weather stations | Latest weather observations for WA | Other Formats
Station Details ID: 009214 Name: OCEAN REEF Lat: -31.76 Lon: 115.73 Height: 10.0 m
Data from the previous 72 hours. | See also: Recent months for locations in Western Australia
Date/Time
WST
Temp
°C
App
Temp
°C
Dew
Point
Rel
Hum
%
Delta-T
°C
Wind Press
QNH
hPa
Press
MSL
hPa
Rain
since 9 am
mm
Dir
 
Spd
km/h
Gust
km/h
Spd
kts
Gust
kts
22/03:30am - - - - - SSE 24 32 13 17 - - -
22/03:00am - - - - - SSE 32 43 17 23 - - -
22/02:49am - - - - - S 52 70 28 38 - - -
22/02:44am - - - - - S 57 70 31 38 - - -
22/02:43am - - - - - S 28 67 15 36 - - -
22/02:30am - - - - - SSE 24 33 13 18 - - -
22/02:00am - - - - - S 26 33 14 18 - - -
22/01:30am - - - - - SSE 28 39 15 21 - - -
22/01:00am - - - - - SSE 26 35 14 19 - - -
22/12:30am - - - - - SSE 28 37 15 20 - - -
22/12:00am - - - - - SSE 35 46 19 25 - - -
 
Date/Time
WST
Temp
°C
App
Temp
°C
Dew
Point
Rel
Hum
%
Delta-T
°C
Wind Press
QNH
hPa
Press
MSL
hPa
Rain
since 9 am
mm
Dir
 
Spd
km/h
Gust
km/h
Spd
kts
Gust
kts
21/11:43pm - - - - - SSE 35 54 19 29 - - -
21/11:30pm - - - - - SSE 37 52 20 28 - - -
21/11:17pm - - - - - SSE 37 56 20 30 - - -
21/11:00pm - - - - - SSE 35 50 19 27 - - -
21/10:30pm - - - - - SSE 37 52 20 28 - - -
21/10:05pm - - - - - S 41 59 22 32 - - -
21/10:00pm - - - - - SSE 43 59 23 32 - - -
21/09:30pm - - - - - S 35 54 19 29 - - -
21/09:08pm - - - - - S 37 56 20 30 - - -
21/09:00pm - - - - - S 46 56 25 30 - - -
21/08:30pm - - - - - S 33 54 18 29 - - -
21/08:01pm - - - - - SSE 35 54 19 29 - - -
21/08:00pm - - - - - SSE 37 54 20 29 - - -
21/07:55pm - - - - - SSE 35 54 19 29 - - -
21/07:44pm - - - - - S 37 50 20 27 - - -
21/07:30pm - - - - - S 56 69 30 37 - - -
21/07:02pm - - - - - SSW 54 74 29 40 - - -
21/07:00pm - - - - - SSW 54 69 29 37 - - -
21/06:33pm - - - - - S 48 61 26 33 - - -
21/06:30pm - - - - - SSE 32 37 17 20 - - -
21/06:25pm - - - - - S 48 59 26 32 - - -
21/06:23pm - - - - - SW 35 57 19 31 - - -
21/06:17pm - - - - - W 20 22 11 12 - - -
21/06:00pm - - - - - NW 37 41 20 22 - - -
21/05:30pm - - - - - NW 32 43 17 23 - - -
21/05:00pm - - - - - N 20 32 11 17 - - -
21/04:30pm - - - - - N 22 33 12 18 - - -
21/04:00pm - - - - - N 22 33 12 18 - - -
21/03:30pm - - - - - N 13 19 7 10 - - -
21/03:00pm - - - - - N 19 28 10 15 - - -
21/02:30pm - - - - - NW 28 33 15 18 - - -
21/02:00pm - - - - - WNW 15 19 8 10 - - -
21/01:30pm - - - - - W 26 32 14 17 - - -
21/01:00pm - - - - - W 39 46 21 25 - - -
21/12:30pm - - - - - W 37 41 20 22 - - -
21/12:00pm - - - - - W 44 52 24 28 - - -
21/11:30am - - - - - W 48 61 26 33 - - -
21/11:18am - - - - - WSW 43 63 23 34 - - -
21/11:00am - - - - - WSW 41 56 22 30 - - -
21/10:30am - - - - - SW 44 57 24 31 - - -
21/10:00am - - - - - SW 43 54 23 29 - - -
21/09:30am - - - - - WSW 56 74 30 40 - - -
21/09:29am - - - - - WSW 54 63 29 34 - - -
21/09:27am - - - - - WNW 48 59 26 32 - - -
21/09:24am - - - - - NNW 57 69 31 37 - - -
21/09:06am - - - - - N 33 56 18 30 - - -
21/09:00am - - - - - N 33 48 18 26 - - -
21/08:36am - - - - - N 33 56 18 30 - - -
21/08:30am - - - - - N 35 50 19 27 - - -
21/08:00am - - - - - N 35 54 19 29 - - -
21/07:36am - - - - - N 32 50 17 27 - - -
21/07:30am - - - - - N 32 48 17 26 - - -
21/07:02am - - - - - N 28 57 15 31 - - -
21/07:00am - - - - - N 28 41 15 22 - - -
21/06:30am - - - - - NNE 28 35 15 19 - - -
21/06:00am - - - - - NNE 24 37 13 20 - - -
21/05:30am - - - - - NNE 22 32 12 17 - - -
21/05:00am - - - - - NNE 24 33 13 18 - - -
21/04:30am - - - - - NNE 22 32 12 17 - - -
21/04:00am - - - - - N 22 33 12 18 - - -
21/03:30am - - - - - N 22 32 12 17 - - -
21/03:00am - - - - - NNE 26 35 14 19 - - -
21/02:30am - - - - - NNE 24 30 13 16 - - -
21/02:00am - - - - - NE 24 33 13 18 - - -
21/01:30am - - - - - NE 24 33 13 18 - - -
21/01:00am - - - - - NNE 20 30 11 16 - - -
21/12:30am - - - - - N 15 20 8 11 - - -
21/12:00am - - - - - N 19 24 10 13 - - -
 
Date/Time
WST
Temp
°C
App
Temp
°C
Dew
Point
Rel
Hum
%
Delta-T
°C
Wind Press
QNH
hPa
Press
MSL
hPa
Rain
since 9 am
mm
Dir
 
Spd
km/h
Gust
km/h
Spd
kts
Gust
kts
20/11:30pm - - - - - NNW 32 35 17 19 - - -
20/11:00pm - - - - - N 19 22 10 12 - - -
20/10:30pm - - - - - NNE 13 19 7 10 - - -
20/10:00pm - - - - - NNE 13 17 7 9 - - -
20/09:30pm - - - - - N 19 26 10 14 - - -
20/09:00pm - - - - - N 22 28 12 15 - - -
20/08:30pm - - - - - N 20 28 11 15 - - -
20/08:00pm - - - - - N 24 32 13 17 - - -
20/07:30pm - - - - - N 20 26 11 14 - - -
20/07:00pm - - - - - N 20 28 11 15 - - -
20/06:30pm - - - - - N 26 32 14 17 - - -
20/06:00pm - - - - - N 32 35 17 19 - - -
20/05:30pm - - - - - NNW 35 41 19 22 - - -
20/05:00pm - - - - - NNW 39 46 21 25 - - -
20/04:30pm - - - - - N 33 41 18 22 - - -
20/04:00pm - - - - - NNW 24 26 13 14 - - -
20/03:30pm - - - - - N 19 20 10 11 - - -
20/03:00pm - - - - - NNW 22 24 12 13 - - -
20/02:30pm - - - - - NW 44 56 24 30 - - -
20/02:24pm - - - - - NW 44 54 24 29 - - -
20/02:00pm - - - - - N 44 57 24 31 - - -
20/01:30pm - - - - - N 28 48 15 26 - - -
20/01:25pm - - - - - N 28 48 15 26 - - -
20/01:00pm - - - - - NNE 24 41 13 22 - - -
20/12:30pm - - - - - NNE 30 43 16 23 - - -
20/12:00pm - - - - - NNE 26 39 14 21 - - -
20/11:30am - - - - - NNE 28 41 15 22 - - -
20/11:00am - - - - - NE 30 39 16 21 - - -
20/10:30am - - - - - NE 32 50 17 27 - - -
20/10:00am - - - - - NNE 30 48 16 26 - - -
20/09:30am - - - - - NE 28 46 15 25 - - -
20/09:07am - - - - - NE 28 46 15 25 - - -
20/09:00am - - - - - NE 30 43 16 23 - - -
20/08:30am - - - - - NE 30 46 16 25 - - -
20/08:24am - - - - - NE 28 46 15 25 - - -
20/08:00am - - - - - NE 26 39 14 21 - - -
20/07:30am - - - - - ENE 28 39 15 21 - - -
20/07:00am - - - - - ENE 24 32 13 17 - - -
20/06:30am - - - - - ENE 22 30 12 16 - - -
20/06:00am - - - - - ENE 28 35 15 19 - - -
20/05:30am - - - - - ENE 26 35 14 19 - - -
20/05:00am - - - - - ENE 26 37 14 20 - - -
20/04:30am - - - - - ENE 26 32 14 17 - - -
20/04:00am - - - - - ENE 24 32 13 17 - - -
20/03:30am - - - - - E 17 26 9 14 - - -
20/03:00am - - - - - E 15 19 8 10 - - -
20/02:30am - - - - - E 19 28 10 15 - - -
20/02:00am - - - - - E 17 22 9 12 - - -
20/01:30am - - - - - E 13 19 7 10 - - -
20/01:00am - - - - - E 15 17 8 9 - - -
20/12:30am - - - - - ESE 9 11 5 6 - - -
20/12:00am - - - - - SSE 9 11 5 6 - - -
 
Date/Time
WST
Temp
°C
App
Temp
°C
Dew
Point
Rel
Hum
%
Delta-T
°C
Wind Press
QNH
hPa
Press
MSL
hPa
Rain
since 9 am
mm
Dir
 
Spd
km/h
Gust
km/h
Spd
kts
Gust
kts
19/11:30pm - - - - - S 7 9 4 5 - - -
19/11:00pm - - - - - SE 11 13 6 7 - - -
19/10:30pm - - - - - SSE 11 15 6 8 - - -
19/10:00pm - - - - - SSE 13 15 7 8 - - -
19/09:30pm - - - - - SSE 13 15 7 8 - - -
19/09:00pm - - - - - SSE 15 15 8 8 - - -
19/08:30pm - - - - - SSE 13 15 7 8 - - -
19/08:00pm - - - - - S 13 17 7 9 - - -
19/07:30pm - - - - - SSE 15 19 8 10 - - -
19/07:00pm - - - - - SSE 15 19 8 10 - - -
19/06:30pm - - - - - S 15 22 8 12 - - -
19/06:00pm - - - - - S 20 24 11 13 - - -
19/05:30pm - - - - - S 20 26 11 14 - - -
19/05:00pm - - - - - S 20 26 11 14 - - -
19/04:30pm - - - - - S 20 26 11 14 - - -
19/04:00pm - - - - - S 22 26 12 14 - - -
19/03:30pm - - - - - SSW 22 28 12 15 - - -
19/03:00pm - - - - - SSW 20 24 11 13 - - -
19/02:30pm - - - - - SSW 19 24 10 13 - - -
19/02:00pm - - - - - SSW 20 26 11 14 - - -
19/01:30pm - - - - - SSW 20 28 11 15 - - -
19/01:00pm - - - - - SSW 22 28 12 15 - - -
19/12:30pm - - - - - SSW 19 22 10 12 - - -
19/12:00pm - - - - - SW 20 24 11 13 - - -
19/11:30am - - - - - SW 17 19 9 10 - - -
19/11:00am - - - - - SW 17 19 9 10 - - -
19/10:30am - - - - - SW 13 17 7 9 - - -
19/10:00am - - - - - SSW 13 17 7 9 - - -
19/09:30am - - - - - S 13 19 7 10 - - -
19/09:00am - - - - - SE 11 17 6 9 - - -
19/08:30am - - - - - E 15 19 8 10 - - -
19/08:00am - - - - - E 11 15 6 8 - - -
19/07:30am - - - - - E 11 15 6 8 - - -
19/07:00am - - - - - ENE 13 17 7 9 - - -
19/06:30am - - - - - E 15 15 8 8 - - -
19/06:00am - - - - - E 13 15 7 8 - - -
19/05:30am - - - - - ESE 13 15 7 8 - - -
19/05:00am - - - - - ESE 13 15 7 8 - - -
19/04:30am - - - - - ESE 13 15 7 8 - - -
19/04:00am - - - - - ESE 13 15 7 8 - - -

Other Formats:

Comma delimited format used in spreadsheet applications
http://www.bom.gov.au/fwo/IDW60801/IDW60801.94607.axf

JavaScript Object Notation format (JSON) in row-major order
http://www.bom.gov.au/fwo/IDW60801/IDW60801.94607.json